Time;durP1;ratioP1;P1;durP2;ratioP2;P2;SDS_P1;SDS_P2;PMS_P1;PMS_P2;Temp;Humidity;BMP_temperature;BMP_pressure;BME280_temperature;BME280_humidity;BME280_pressure;Samples;Min_cycle;Max_cycle;Signal;HPM_P1;HPM_P2
2022/09/12 00:01:21;;;;;;;0.40;0.30;;;;;;;18.13;100.00;94915.22;5113485;28;20431;-59
2022/09/12 00:03:52;;;;;;;0.60;0.40;;;;;;;18.01;100.00;94915.91;5113272;28;20420;-59
2022/09/12 00:06:24;;;;;;;0.40;0.30;;;;;;;18.05;100.00;94918.75;5113243;28;20435;-59
2022/09/12 00:08:55;;;;;;;0.40;0.30;;;;;;;18.19;100.00;94901.28;5113611;28;20435;-59
2022/09/12 00:11:24;;;;;;;0.50;0.33;;;;;;;18.17;100.00;94903.50;5113456;28;20467;-59
2022/09/12 00:13:56;;;;;;;0.60;0.30;;;;;;;18.12;100.00;94892.19;5113554;28;20423;-59
2022/09/12 00:16:26;;;;;;;0.40;0.30;;;;;;;18.35;100.00;94898.78;5113351;28;20427;-59
2022/09/12 00:18:55;;;;;;;0.40;0.30;;;;;;;18.37;100.00;94901.94;5113078;28;20416;-59
2022/09/12 00:21:25;;;;;;;0.50;0.40;;;;;;;18.10;100.00;94905.13;5113321;28;20442;-59
2022/09/12 00:23:54;;;;;;;0.80;0.70;;;;;;;18.10;100.00;94916.66;5113120;28;20423;-59
2022/09/12 00:26:22;;;;;;;0.60;0.60;;;;;;;18.07;100.00;94909.25;5113052;28;20435;-59
2022/09/12 00:28:51;;;;;;;0.40;0.30;;;;;;;18.13;100.00;94899.91;5112900;28;20958;-59
2022/09/12 00:31:22;;;;;;;0.47;0.30;;;;;;;18.15;100.00;94905.72;5112893;27;20509;-59
2022/09/12 00:33:51;;;;;;;0.50;0.30;;;;;;;18.24;100.00;94889.59;5112878;28;20975;-59
2022/09/12 00:36:22;;;;;;;0.90;0.90;;;;;;;18.42;100.00;94892.91;5112908;28;20428;-59
2022/09/12 00:38:52;;;;;;;0.70;0.40;;;;;;;18.42;100.00;94899.06;5112820;28;20431;-59
2022/09/12 00:41:22;;;;;;;0.60;0.60;;;;;;;18.22;100.00;94894.47;5113181;28;20423;-59
2022/09/12 00:43:53;;;;;;;0.53;0.40;;;;;;;18.25;100.00;94889.25;5113154;28;20479;-59
2022/09/12 00:46:39;;;;;;;0.50;0.30;;;;;;;18.21;100.00;94888.34;5112564;28;20424;-59
2022/09/12 00:49:14;;;;;;;0.60;0.60;;;;;;;18.20;100.00;94892.13;5112519;28;20912;-58
2022/09/12 00:51:45;;;;;;;0.60;0.60;;;;;;;18.34;100.00;94891.88;5112476;28;20486;-58
2022/09/12 00:54:21;;;;;;;0.60;0.60;;;;;;;18.33;100.00;94884.94;5112592;28;20424;-58
2022/09/12 00:56:52;;;;;;;0.57;0.50;;;;;;;17.81;100.00;94841.59;5112359;28;20474;-59
2022/09/12 00:59:27;;;;;;;0.90;0.90;;;;;;;17.90;100.00;94897.84;5112426;28;20431;-59
2022/09/12 01:01:56;;;;;;;0.50;0.37;;;;;;;17.92;100.00;94901.00;5112653;28;20438;-59
2022/09/12 01:04:27;;;;;;;0.77;0.77;;;;;;;17.83;100.00;94893.03;5111554;28;20928;-58
2022/09/12 01:06:57;;;;;;;0.50;0.30;;;;;;;17.49;100.00;94810.09;5112179;28;20435;-59
2022/09/12 01:09:27;;;;;;;0.53;0.37;;;;;;;18.02;100.00;94882.63;5112270;28;20427;-59
2022/09/12 01:11:57;;;;;;;0.50;0.40;;;;;;;18.15;100.00;94878.91;5112346;28;20463;-59
2022/09/12 01:14:25;;;;;;;0.77;0.77;;;;;;;18.08;100.00;94873.28;5112621;28;20815;-59
2022/09/12 01:16:53;;;;;;;0.50;0.30;;;;;;;18.22;100.00;94870.34;5112464;28;20424;-59
2022/09/12 01:19:50;;;;;;;0.50;0.40;;;;;;;18.15;100.00;94875.44;5112763;28;20423;-59
2022/09/12 01:22:43;;;;;;;0.50;0.40;;;;;;;18.05;100.00;94873.16;5112421;28;20420;-59
2022/09/12 01:25:24;;;;;;;0.60;0.50;;;;;;;18.17;100.00;94876.69;5112422;28;20782;-59
2022/09/12 01:28:11;;;;;;;1.13;0.60;;;;;;;18.09;100.00;94868.72;5112358;28;20415;-59
2022/09/12 01:30:45;;;;;;;0.50;0.40;;;;;;;18.27;100.00;94870.94;5111959;28;20434;-59
2022/09/12 01:33:34;;;;;;;3.90;0.90;;;;;;;18.52;100.00;94871.84;5112292;28;20462;-59
2022/09/12 01:36:18;;;;;;;0.70;0.47;;;;;;;19.17;100.00;94881.00;5112299;28;20431;-59
2022/09/12 01:38:50;;;;;;;0.60;0.50;;;;;;;18.68;100.00;94882.75;5112212;28;20432;-59
2022/09/12 01:41:26;;;;;;;0.60;0.60;;;;;;;18.40;100.00;94871.78;5112051;28;20427;-59
2022/09/12 01:44:02;;;;;;;0.50;0.30;;;;;;;18.58;100.00;94886.63;5112213;28;20808;-59
2022/09/12 01:46:40;;;;;;;0.40;0.30;;;;;;;19.03;100.00;94894.72;5112176;28;20419;-59
2022/09/12 01:49:15;;;;;;;0.40;0.30;;;;;;;19.30;100.00;94901.41;5112121;28;20423;-59
2022/09/12 01:51:54;;;;;;;0.40;0.30;;;;;;;19.62;100.00;94887.91;5111840;28;20419;-59
2022/09/12 01:54:30;;;;;;;0.60;0.50;;;;;;;18.90;100.00;94829.47;5112049;28;20430;-59
2022/09/12 01:57:04;;;;;;;0.50;0.30;;;;;;;19.50;100.00;94881.75;5111763;28;20496;-59
2022/09/12 01:59:36;;;;;;;0.50;0.50;;;;;;;19.38;100.00;94887.13;5111853;28;20424;-59
2022/09/12 02:02:12;;;;;;;0.40;0.30;;;;;;;19.53;100.00;94883.75;5112338;28;20450;-59
2022/09/12 02:04:50;;;;;;;0.60;0.40;;;;;;;19.52;100.00;94876.81;5111889;28;20442;-59
2022/09/12 02:07:21;;;;;;;0.50;0.40;;;;;;;18.64;100.00;94888.03;5111715;28;20419;-59
2022/09/12 02:09:54;;;;;;;0.60;0.60;;;;;;;18.11;100.00;94894.09;5111731;28;20427;-59
2022/09/12 02:12:29;;;;;;;0.47;0.47;;;;;;;17.99;100.00;94896.69;5111602;28;20463;-59
2022/09/12 02:15:03;;;;;;;0.60;0.50;;;;;;;18.20;100.00;94886.75;5113016;28;20427;-60
2022/09/12 02:17:38;;;;;;;0.60;0.57;;;;;;;18.36;100.00;94889.66;5115558;28;20416;-59
2022/09/12 02:20:13;;;;;;;1.63;0.70;;;;;;;18.07;100.00;94882.44;5115569;28;20418;-59
2022/09/12 02:23:07;;;;;;;0.40;0.30;;;;;;;18.09;100.00;94890.94;5115352;28;20952;-59
2022/09/12 02:25:41;;;;;;;0.57;0.37;;;;;;;17.92;100.00;94887.59;5115692;28;20821;-59
2022/09/12 02:28:14;;;;;;;1.13;1.13;;;;;;;18.11;100.00;94887.94;5115129;28;20427;-60
2022/09/12 02:30:50;;;;;;;0.50;0.30;;;;;;;18.28;100.00;94887.81;5115542;28;20428;-60
2022/09/12 02:33:27;;;;;;;1.27;0.50;;;;;;;18.17;100.00;94878.56;5115100;28;20504;-59
2022/09/12 02:36:03;;;;;;;0.47;0.40;;;;;;;18.49;100.00;94882.47;5115110;28;20423;-59
2022/09/12 02:38:37;;;;;;;0.67;0.67;;;;;;;18.40;100.00;94885.97;5114996;28;20927;-58
2022/09/12 02:41:06;;;;;;;0.50;0.30;;;;;;;18.63;100.00;94888.34;5114940;28;20423;-58
2022/09/12 02:43:36;;;;;;;10.40;0.40;;;;;;;18.81;100.00;94879.78;5115016;28;20434;-58
2022/09/12 02:46:08;;;;;;;0.40;0.30;;;;;;;19.15;100.00;94884.00;5115219;28;20419;-58
2022/09/12 02:48:42;;;;;;;0.50;0.30;;;;;;;19.27;100.00;94885.94;5114699;28;20921;-58
2022/09/12 02:51:11;;;;;;;0.40;0.30;;;;;;;19.37;100.00;94883.63;5115090;28;20419;-58
2022/09/12 02:53:42;;;;;;;0.50;0.30;;;;;;;19.14;100.00;94887.03;5114908;28;20486;-58
2022/09/12 02:56:17;;;;;;;0.40;0.20;;;;;;;18.99;100.00;94889.25;5114340;28;20863;-58
2022/09/12 02:58:46;;;;;;;0.70;0.50;;;;;;;18.77;100.00;94891.53;5114821;28;20427;-58
2022/09/12 03:01:26;;;;;;;0.97;0.40;;;;;;;18.37;100.00;94888.50;5114635;28;20428;-58
2022/09/12 03:04:18;;;;;;;0.50;0.50;;;;;;;18.21;100.00;94882.97;5114506;28;20439;-58
2022/09/12 03:06:57;;;;;;;0.50;0.50;;;;;;;18.13;100.00;94886.50;5114692;28;20431;-58
2022/09/12 03:09:35;;;;;;;0.50;0.40;;;;;;;17.87;100.00;94891.25;5114382;28;20439;-58
2022/09/12 03:12:11;;;;;;;0.93;0.50;;;;;;;17.53;100.00;94894.13;5114349;28;20427;-58
2022/09/12 03:15:05;;;;;;;0.50;0.30;;;;;;;17.76;100.00;94898.88;5114396;28;20435;-58
2022/09/12 03:17:45;;;;;;;0.50;0.33;;;;;;;18.24;100.00;94892.28;5111538;28;20444;-58
2022/09/12 03:20:22;;;;;;;0.53;0.30;;;;;;;18.67;100.00;94897.31;5114387;28;20418;-58
2022/09/12 03:22:56;;;;;;;1.53;0.40;;;;;;;18.89;100.00;94894.25;5114198;28;20986;-58
2022/09/12 03:25:30;;;;;;;2.80;0.30;;;;;;;18.93;100.00;94895.16;5114027;28;20423;-58
2022/09/12 03:28:05;;;;;;;0.50;0.40;;;;;;;18.48;100.00;94895.09;5113988;28;20427;-58
2022/09/12 03:30:38;;;;;;;0.50;0.40;;;;;;;18.27;100.00;94899.66;5114091;28;20427;-58
2022/09/12 03:33:06;;;;;;;0.80;0.80;;;;;;;18.02;100.00;94905.97;5113953;28;21086;-58
2022/09/12 03:35:36;;;;;;;0.40;0.30;;;;;;;18.27;100.00;94903.13;5114553;28;20420;-59
2022/09/12 03:38:06;;;;;;;1.07;0.30;;;;;;;18.68;100.00;94905.03;5114199;28;20415;-58
2022/09/12 03:40:35;;;;;;;0.60;0.30;;;;;;;18.95;100.00;94893.69;5114176;28;20419;-58
2022/09/12 03:43:04;;;;;;;0.43;0.30;;;;;;;19.10;100.00;94896.88;5114300;28;20427;-58
2022/09/12 03:45:32;;;;;;;0.40;0.30;;;;;;;19.18;100.00;94899.47;5113724;28;20427;-58
2022/09/12 03:48:01;;;;;;;0.50;0.40;;;;;;;19.18;100.00;94896.78;5113983;28;20446;-58
2022/09/12 03:50:29;;;;;;;0.50;0.30;;;;;;;18.97;100.00;94902.19;5113989;28;20423;-58
2022/09/12 03:53:00;;;;;;;0.43;0.37;;;;;;;19.06;100.00;94901.34;5113543;28;20998;-58
2022/09/12 03:55:29;;;;;;;0.53;0.43;;;;;;;19.07;100.00;94903.69;5113681;28;20415;-58
2022/09/12 03:57:58;;;;;;;0.40;0.30;;;;;;;19.01;100.00;94908.50;5113295;28;20467;-58
2022/09/12 04:00:26;;;;;;;0.40;0.30;;;;;;;18.70;100.00;94859.84;5113812;28;20423;-58
2022/09/12 04:02:56;;;;;;;0.50;0.33;;;;;;;19.21;100.00;94901.47;5113692;28;20442;-58
2022/09/12 04:05:25;;;;;;;0.40;0.30;;;;;;;19.23;100.00;94903.81;5113933;28;20411;-58
2022/09/12 04:07:53;;;;;;;0.50;0.40;;;;;;;19.43;100.00;94911.09;5113596;28;20428;-58
2022/09/12 04:10:23;;;;;;;0.40;0.20;;;;;;;19.41;100.00;94907.91;5113260;28;20442;-58
2022/09/12 04:12:51;;;;;;;0.40;0.30;;;;;;;19.53;100.00;94913.34;5113508;28;20760;-58
2022/09/12 04:15:20;;;;;;;0.60;0.57;;;;;;;19.49;100.00;94915.88;5113828;28;20801;-59
2022/09/12 04:17:48;;;;;;;0.50;0.30;;;;;;;19.37;100.00;94923.16;5113775;28;20926;-59
2022/09/12 04:20:17;;;;;;;0.50;0.40;;;;;;;18.80;100.00;94929.22;5113496;28;20434;-59
2022/09/12 04:22:45;;;;;;;0.50;0.30;;;;;;;17.86;100.00;94939.84;5113439;28;20424;-59
2022/09/12 04:25:14;;;;;;;1.17;0.97;;;;;;;17.65;100.00;94896.91;5113458;28;20431;-59
2022/09/12 04:27:43;;;;;;;0.40;0.30;;;;;;;17.70;100.00;94937.72;5113028;28;20546;-59
2022/09/12 04:30:13;;;;;;;0.40;0.30;;;;;;;17.90;100.00;94952.28;5113274;28;20925;-59
2022/09/12 04:32:41;;;;;;;0.50;0.37;;;;;;;17.85;100.00;94948.97;5112857;28;20420;-60
2022/09/12 04:35:11;;;;;;;0.53;0.30;;;;;;;17.66;100.00;94966.25;5112889;28;20463;-59
2022/09/12 04:37:39;;;;;;;0.60;0.40;;;;;;;17.70;100.00;94961.84;5113025;28;20829;-59
2022/09/12 04:40:08;;;;;;;0.40;0.30;;;;;;;18.27;100.00;94961.34;5113143;28;20924;-55
2022/09/12 04:42:37;;;;;;;0.50;0.30;;;;;;;18.53;100.00;94964.66;5112911;28;20424;-55
2022/09/12 04:45:08;;;;;;;0.50;0.40;;;;;;;18.70;100.00;94969.91;5112669;28;20435;-56
2022/09/12 04:47:36;;;;;;;0.40;0.30;;;;;;;18.20;100.00;94971.81;5112928;28;20419;-56
2022/09/12 04:50:06;;;;;;;0.60;0.50;;;;;;;18.15;100.00;94974.69;5112853;28;20446;-56
2022/09/12 04:52:34;;;;;;;0.40;0.30;;;;;;;18.32;100.00;94979.94;5112831;28;20419;-56
2022/09/12 04:55:03;;;;;;;0.50;0.40;;;;;;;18.36;100.00;94983.56;5112490;28;20463;-55
2022/09/12 04:57:31;;;;;;;0.47;0.33;;;;;;;18.59;100.00;94984.84;5112198;28;20467;-55
2022/09/12 05:00:00;;;;;;;1.33;1.23;;;;;;;18.77;100.00;94959.41;5112754;28;20786;-55
2022/09/12 05:02:35;;;;;;;0.50;0.30;;;;;;;19.32;100.00;94983.25;5112417;28;20431;-56
2022/09/12 05:05:04;;;;;;;0.40;0.30;;;;;;;19.74;100.00;94981.22;5112221;28;20913;-56
2022/09/12 05:07:32;;;;;;;0.50;0.30;;;;;;;19.77;100.00;94987.84;5112298;28;20820;-55
2022/09/12 05:10:02;;;;;;;1.10;0.80;;;;;;;19.69;100.00;94992.19;5112297;28;20427;-55
2022/09/12 05:12:31;;;;;;;0.40;0.30;;;;;;;19.38;100.00;94990.00;5112498;28;20810;-56
2022/09/12 05:14:59;;;;;;;0.70;0.70;;;;;;;19.82;100.00;94990.31;5112598;28;20470;-55
2022/09/12 05:17:29;;;;;;;0.60;0.40;;;;;;;19.98;100.00;94997.38;5112459;28;20435;-55
2022/09/12 05:19:59;;;;;;;0.77;0.30;;;;;;;20.13;100.00;94996.72;5112264;28;20420;-56
2022/09/12 05:22:27;;;;;;;0.50;0.30;;;;;;;20.31;100.00;94994.59;5112180;28;20437;-56
2022/09/12 05:24:56;;;;;;;0.50;0.50;;;;;;;20.39;100.00;94988.28;5112242;28;20913;-55
2022/09/12 05:27:24;;;;;;;0.90;0.40;;;;;;;20.10;100.00;94985.84;5112328;28;20473;-56
2022/09/12 05:29:52;;;;;;;0.40;0.30;;;;;;;20.00;100.00;94989.75;5112342;28;20431;-56
2022/09/12 05:32:20;;;;;;;0.50;0.40;;;;;;;20.01;100.00;94993.25;5111803;28;20434;-56
2022/09/12 05:34:49;;;;;;;0.47;0.30;;;;;;;20.17;100.00;94989.53;5111518;28;21004;-56
2022/09/12 05:37:19;;;;;;;0.60;0.60;;;;;;;20.17;100.00;94981.47;5111828;28;20423;-56
2022/09/12 05:39:47;;;;;;;0.40;0.30;;;;;;;20.47;100.00;94979.31;5112047;28;20798;-56
2022/09/12 05:42:16;;;;;;;0.50;0.40;;;;;;;20.62;100.00;94983.19;5112403;28;20481;-56
2022/09/12 05:44:44;;;;;;;0.50;0.40;;;;;;;20.26;100.00;94981.38;5112184;28;20450;-56
2022/09/12 05:47:12;;;;;;;0.67;0.67;;;;;;;20.21;100.00;94982.34;5112342;28;20420;-56
2022/09/12 05:49:40;;;;;;;0.60;0.60;;;;;;;20.72;100.00;94985.44;5113399;28;20423;-55
2022/09/12 05:52:09;;;;;;;0.40;0.30;;;;;;;20.79;100.00;94983.75;5115904;28;20438;-55
2022/09/12 05:54:40;;;;;;;14.20;0.63;;;;;;;21.56;100.00;94987.00;5116021;28;20462;-54
2022/09/12 05:57:08;;;;;;;0.50;0.40;;;;;;;21.78;94.63;94977.56;5115813;28;20474;-54
2022/09/12 05:59:36;;;;;;;0.67;0.50;;;;;;;22.65;89.59;94978.09;5116014;28;20774;-54
2022/09/12 06:02:05;;;;;;;0.50;0.30;;;;;;;23.11;92.67;94976.34;5115782;28;20415;-54
2022/09/12 06:04:33;;;;;;;0.50;0.40;;;;;;;23.45;77.19;94972.78;5116161;28;20424;-53
2022/09/12 06:07:02;;;;;;;0.60;0.43;;;;;;;23.68;73.11;94970.88;5115790;28;20419;-53
2022/09/12 06:09:31;;;;;;;0.80;0.80;;;;;;;23.40;73.03;94975.00;5115703;28;20442;-54
2022/09/12 06:12:01;;;;;;;0.50;0.30;;;;;;;23.84;68.29;94971.53;5116021;28;20423;-54
2022/09/12 06:14:29;;;;;;;0.60;0.60;;;;;;;23.97;63.84;94974.84;5115707;28;20466;-53
2022/09/12 06:16:57;;;;;;;0.50;0.30;;;;;;;24.19;63.20;94970.56;5115673;28;20434;-54
2022/09/12 06:19:26;;;;;;;0.50;0.47;;;;;;;24.68;61.02;94971.31;5115653;28;20423;-53
2022/09/12 06:21:55;;;;;;;6.47;0.50;;;;;;;24.91;57.78;94974.75;5115352;28;20424;-53
2022/09/12 06:24:24;;;;;;;0.50;0.30;;;;;;;25.30;54.01;94971.72;5115796;28;20435;-53
2022/09/12 06:26:52;;;;;;;0.40;0.30;;;;;;;24.07;59.88;94968.81;5115689;27;20427;-54
2022/09/12 06:29:22;;;;;;;0.40;0.30;;;;;;;25.05;57.28;94969.47;5115715;27;20780;-54
2022/09/12 06:31:50;;;;;;;0.53;0.47;;;;;;;24.74;53.01;94883.13;5115353;28;20436;-54
2022/09/12 06:34:19;;;;;;;0.40;0.30;;;;;;;25.46;54.91;94926.94;5115457;28;20431;-54
2022/09/12 06:36:49;;;;;;;4.07;0.40;;;;;;;26.39;50.87;94954.53;5115660;28;20418;-54
2022/09/12 06:39:19;;;;;;;0.53;0.40;;;;;;;26.13;50.95;94949.31;5115006;28;20434;-53
2022/09/12 06:41:48;;;;;;;0.60;0.53;;;;;;;25.97;52.09;94954.19;5115139;27;20427;-54
2022/09/12 06:44:18;;;;;;;0.50;0.40;;;;;;;26.49;49.66;94963.88;5115371;28;20467;-54
2022/09/12 06:46:49;;;;;;;0.50;0.37;;;;;;;26.37;50.38;94943.25;5115085;28;20420;-55
2022/09/12 06:49:17;;;;;;;0.50;0.40;;;;;;;26.73;47.36;94962.50;5115195;28;20428;-54
2022/09/12 06:51:45;;;;;;;0.40;0.30;;;;;;;26.06;49.06;94962.78;5114875;28;20418;-54
2022/09/12 06:54:15;;;;;;;1.27;1.17;;;;;;;25.76;50.40;94959.41;5114737;28;20925;-54
2022/09/12 06:56:44;;;;;;;0.40;0.30;;;;;;;26.09;48.19;94909.63;5114553;28;20457;-58
2022/09/12 06:59:13;;;;;;;0.40;0.40;;;;;;;26.26;45.74;94960.66;5114861;27;20428;-59
2022/09/12 07:01:41;;;;;;;0.60;0.60;;;;;;;25.93;46.60;94964.25;5113638;28;20427;-60
2022/09/12 07:04:11;;;;;;;0.43;0.40;;;;;;;26.12;45.79;94941.50;5114922;28;20459;-61
2022/09/12 07:06:43;;;;;;;0.63;0.63;;;;;;;26.27;44.88;94971.13;5114872;28;20426;-61
2022/09/12 07:09:15;;;;;;;0.43;0.40;;;;;;;26.48;41.64;94956.91;5114869;28;20437;-61
2022/09/12 07:11:44;;;;;;;0.40;0.30;;;;;;;26.29;44.58;94959.88;5114772;28;20422;-61
2022/09/12 07:14:14;;;;;;;0.40;0.30;;;;;;;26.26;46.60;94960.66;5114716;28;20435;-59
2022/09/12 07:16:42;;;;;;;0.50;0.30;;;;;;;26.10;42.51;94962.81;5114387;28;20482;-60
2022/09/12 07:19:12;;;;;;;0.50;0.40;;;;;;;26.05;48.17;94928.63;5114330;28;20420;-60
2022/09/12 07:21:41;;;;;;;0.50;0.40;;;;;;;25.88;52.38;94961.88;5114708;28;20429;-60
2022/09/12 07:24:10;;;;;;;0.40;0.30;;;;;;;26.56;43.66;94955.81;5114332;28;20427;-59
2022/09/12 07:26:40;;;;;;;0.40;0.40;;;;;;;26.33;42.71;94955.25;5114088;28;20436;-58
2022/09/12 07:29:15;;;;;;;0.50;0.40;;;;;;;26.06;46.28;94957.34;5114091;28;20477;-59
2022/09/12 07:32:04;;;;;;;0.43;0.40;;;;;;;26.66;41.78;94957.03;5113877;28;20439;-59
2022/09/12 07:34:35;;;;;;;0.60;0.40;;;;;;;27.19;41.26;94958.09;5113967;28;20430;-59
2022/09/12 07:37:03;;;;;;;0.40;0.30;;;;;;;27.57;39.13;94951.22;5114265;28;20508;-58
2022/09/12 07:39:32;;;;;;;0.40;0.33;;;;;;;27.33;40.06;94951.88;5114349;28;20768;-59
2022/09/12 07:42:00;;;;;;;0.40;0.30;;;;;;;27.47;42.41;94963.66;5114012;28;20435;-59
2022/09/12 07:44:29;;;;;;;0.30;0.30;;;;;;;27.27;40.14;94956.94;5113958;28;20424;-59
2022/09/12 07:46:57;;;;;;;0.40;0.30;;;;;;;26.89;38.87;94952.13;5114159;28;20463;-59
2022/09/12 07:49:25;;;;;;;0.40;0.30;;;;;;;27.29;40.17;94957.34;5113682;28;20424;-59
2022/09/12 07:51:55;;;;;;;0.53;0.50;;;;;;;27.26;40.44;94960.81;5113725;28;20429;-59
2022/09/12 07:54:24;;;;;;;0.70;0.40;;;;;;;27.40;38.04;94957.41;5113724;28;20860;-59
2022/09/12 07:56:52;;;;;;;0.40;0.30;;;;;;;27.58;37.83;94953.53;5113446;28;20495;-59
2022/09/12 07:59:20;;;;;;;0.50;0.47;;;;;;;27.53;37.34;94944.97;5113910;28;20441;-59
2022/09/12 08:02:13;;;;;;;0.40;0.30;;;;;;;27.50;39.27;94951.22;5113303;28;20437;-59
2022/09/12 08:04:45;;;;;;;0.47;0.47;;;;;;;27.85;37.08;94950.47;5113750;27;20866;-59
2022/09/12 08:07:17;;;;;;;1.23;0.40;;;;;;;27.66;38.31;94941.50;5113511;28;20435;-58
2022/09/12 08:09:48;;;;;;;0.40;0.33;;;;;;;28.72;35.48;94944.22;5113424;28;20442;-60
2022/09/12 08:12:16;;;;;;;0.57;0.57;;;;;;;28.79;35.91;94933.28;5112959;28;20435;-58
2022/09/12 08:14:44;;;;;;;0.40;0.40;;;;;;;28.78;35.37;94948.13;5113265;28;20424;-59
2022/09/12 08:17:13;;;;;;;0.40;0.30;;;;;;;29.06;33.81;94943.72;5113466;28;20983;-59
2022/09/12 08:19:41;;;;;;;0.40;0.30;;;;;;;29.36;34.71;94952.97;5113166;28;20437;-59
2022/09/12 08:22:10;;;;;;;0.40;0.40;;;;;;;29.40;33.43;94944.75;5113270;28;20421;-59
2022/09/12 08:24:39;;;;;;;1.70;0.40;;;;;;;29.60;32.28;94943.06;5113359;28;20443;-58
2022/09/12 08:27:08;;;;;;;0.40;0.30;;;;;;;30.19;31.50;94941.91;5113280;28;20421;-58
2022/09/12 08:29:36;;;;;;;0.40;0.30;;;;;;;29.51;30.36;94940.03;5113137;28;20459;-59
2022/09/12 08:32:05;;;;;;;0.30;0.20;;;;;;;29.70;32.01;94938.75;5113186;28;20417;-59
2022/09/12 08:34:33;;;;;;;0.40;0.40;;;;;;;29.92;31.75;94940.97;5112839;28;20440;-59
2022/09/12 08:37:02;;;;;;;0.40;0.30;;;;;;;29.78;32.20;94940.28;5112609;28;20481;-58
2022/09/12 08:39:32;;;;;;;0.40;0.30;;;;;;;29.71;31.06;94943.03;5112825;28;20434;-58
2022/09/12 08:42:03;;;;;;;0.40;0.30;;;;;;;28.77;32.60;94927.44;5113040;27;20430;-58
2022/09/12 08:44:59;;;;;;;0.60;0.53;;;;;;;29.69;31.49;94931.72;5112664;28;20435;-58
2022/09/12 08:47:31;;;;;;;0.80;0.80;;;;;;;29.38;31.58;94923.31;5112838;28;20436;-58
2022/09/12 08:50:16;;;;;;;0.40;0.30;;;;;;;29.80;30.02;94921.53;5112817;27;20444;-59
2022/09/12 08:52:53;;;;;;;0.30;0.30;;;;;;;30.42;28.41;94913.22;5112561;28;20433;-58
2022/09/12 08:55:34;;;;;;;0.40;0.27;;;;;;;30.68;29.22;94918.03;5110563;28;20452;-57
2022/09/12 08:58:13;;;;;;;0.43;0.37;;;;;;;30.45;29.46;94909.69;5110513;28;20472;-58
2022/09/12 09:00:51;;;;;;;0.50;0.30;;;;;;;30.26;28.98;94910.22;5111406;28;20434;-58
2022/09/12 09:03:45;;;;;;;0.30;0.30;;;;;;;29.72;30.33;94912.59;5111477;28;20434;-58
2022/09/12 09:06:26;;;;;;;1.57;0.30;;;;;;;30.07;29.55;94911.56;5110614;28;20532;-58
2022/09/12 09:09:04;;;;;;;0.63;0.63;;;;;;;29.84;29.70;94908.63;5111096;28;20452;-58
2022/09/12 09:11:47;;;;;;;0.40;0.30;;;;;;;29.75;29.95;94900.88;5110861;28;20437;-58
2022/09/12 09:14:50;;;;;;;0.40;0.30;;;;;;;31.08;29.58;94909.00;5110515;28;20442;-58
2022/09/12 09:17:24;;;;;;;0.40;0.30;;;;;;;30.46;29.39;94901.06;5110279;28;20491;-58
2022/09/12 09:20:02;;;;;;;0.50;0.40;;;;;;;30.67;29.57;94900.06;5110064;28;20960;-58
2022/09/12 09:22:41;;;;;;;0.30;0.20;;;;;;;31.57;27.75;94893.13;5110132;28;20433;-58
2022/09/12 09:25:17;;;;;;;0.40;0.30;;;;;;;31.13;27.69;94891.34;5109577;28;20426;-58
2022/09/12 09:27:58;;;;;;;0.40;0.30;;;;;;;30.72;27.94;94894.13;5111116;28;20439;-58
2022/09/12 09:30:27;;;;;;;0.40;0.30;;;;;;;32.04;26.50;94878.28;5111901;28;20761;-58
2022/09/12 09:32:59;;;;;;;0.33;0.27;;;;;;;32.78;25.93;94874.22;5112223;28;20462;-58
2022/09/12 09:35:38;;;;;;;0.30;0.20;;;;;;;31.53;26.71;94879.47;5112458;28;20423;-58
2022/09/12 09:38:19;;;;;;;0.40;0.30;;;;;;;32.31;25.58;94875.50;5111991;28;20943;-58
2022/09/12 09:41:00;;;;;;;0.30;0.20;;;;;;;33.00;24.19;94880.84;5112312;28;20940;-58
2022/09/12 09:43:28;;;;;;;0.30;0.30;;;;;;;34.19;23.91;94871.13;5112378;28;20818;-58
2022/09/12 09:45:59;;;;;;;0.30;0.30;;;;;;;33.13;22.70;94867.25;5112302;28;20428;-58
2022/09/12 09:48:30;;;;;;;0.30;0.20;;;;;;;32.63;23.61;94861.97;5111973;28;20437;-58
2022/09/12 09:51:00;;;;;;;0.30;0.20;;;;;;;32.53;23.44;94858.25;5111907;28;20434;-58
2022/09/12 09:53:37;;;;;;;0.40;0.30;;;;;;;32.88;23.61;94864.22;5112271;28;20523;-58
2022/09/12 09:56:11;;;;;;;0.30;0.30;;;;;;;33.59;23.38;94867.06;5111863;28;21042;-58
2022/09/12 09:58:40;;;;;;;0.30;0.30;;;;;;;32.63;23.36;94870.22;5112105;28;20947;-58
2022/09/12 10:01:16;;;;;;;0.40;0.33;;;;;;;32.95;23.90;94864.06;5112209;28;20488;-58
2022/09/12 10:03:52;;;;;;;0.30;0.20;;;;;;;33.39;22.34;94851.78;5111981;28;20434;-58
2022/09/12 10:06:29;;;;;;;0.37;0.27;;;;;;;32.88;22.29;94869.72;5112219;28;20436;-57
2022/09/12 10:09:08;;;;;;;0.30;0.20;;;;;;;33.47;23.78;94864.94;5111803;28;20435;-57
2022/09/12 10:11:38;;;;;;;0.30;0.20;;;;;;;33.70;22.07;94858.56;5112005;28;20224;-57
2022/09/12 10:14:29;;;;;;;0.30;0.20;;;;;;;34.15;21.80;94853.16;5111936;28;20186;-56
2022/09/12 10:17:02;;;;;;;0.40;0.30;;;;;;;35.14;20.53;94839.47;5110589;28;20237;-57
2022/09/12 10:19:39;;;;;;;1.13;1.13;;;;;;;33.21;22.55;94847.47;5112026;28;20218;-57
2022/09/12 10:22:15;;;;;;;0.30;0.20;;;;;;;34.34;21.03;94844.00;5111599;28;20198;-58
2022/09/12 10:24:49;;;;;;;0.40;0.30;;;;;;;33.72;21.19;94845.16;5111667;28;20206;-58
2022/09/12 10:27:22;;;;;;;0.50;0.33;;;;;;;33.65;22.96;94846.09;5111917;28;20189;-57
2022/09/12 10:29:54;;;;;;;0.50;0.30;;;;;;;34.72;22.62;94847.72;5111708;28;20201;-57
2022/09/12 10:32:28;;;;;;;0.30;0.20;;;;;;;34.93;22.53;94844.38;5111950;28;20564;-57
2022/09/12 10:35:01;;;;;;;0.30;0.20;;;;;;;34.76;22.15;94837.38;5111568;28;20633;-57
2022/09/12 10:37:33;;;;;;;0.30;0.30;;;;;;;34.26;21.16;94843.41;5115106;28;20215;-57
2022/09/12 10:40:04;;;;;;;0.30;0.20;;;;;;;35.18;21.47;94835.41;5115523;28;20230;-57
2022/09/12 10:42:47;;;;;;;0.30;0.20;;;;;;;34.78;21.81;94840.47;5115313;28;20195;-56
2022/09/12 10:45:25;;;;;;;0.30;0.30;;;;;;;34.56;21.43;94811.97;5115382;28;20191;-57
2022/09/12 10:47:58;;;;;;;0.30;0.20;;;;;;;35.64;19.22;94840.31;5115410;28;20209;-57
2022/09/12 10:50:35;;;;;;;0.30;0.20;;;;;;;35.21;20.74;94833.75;5115054;28;20191;-57
2022/09/12 10:53:17;;;;;;;0.30;0.20;;;;;;;35.03;19.67;94837.78;5114996;27;20199;-57
2022/09/12 10:56:00;;;;;;;0.30;0.30;;;;;;;35.32;20.43;94834.97;5114972;28;20191;-57
2022/09/12 10:58:43;;;;;;;0.30;0.20;;;;;;;37.17;18.08;94824.78;5115120;28;20214;-57
2022/09/12 11:01:26;;;;;;;0.30;0.28;;;;;;;36.16;19.52;94831.53;5114804;28;20195;-57
2022/09/12 11:04:14;;;;;;;0.40;0.30;;;;;;;35.57;19.69;94834.25;5114969;28;20667;-57
2022/09/12 11:06:52;;;;;;;0.50;0.30;;;;;;;35.34;20.19;94837.28;5115086;27;20192;-57
2022/09/12 11:09:30;;;;;;;0.30;0.20;;;;;;;35.11;21.63;94830.09;5114610;27;20648;-57
2022/09/12 11:12:08;;;;;;;0.38;0.30;;;;;;;35.07;21.19;94824.69;5114844;28;20193;-58
2022/09/12 11:14:51;;;;;;;0.40;0.20;;;;;;;34.56;21.11;94825.75;5114721;27;20566;-57
2022/09/12 11:17:30;;;;;;;0.30;0.30;;;;;;;34.54;22.55;94824.59;5114750;28;20720;-57
2022/09/12 11:20:43;;;;;;;0.40;0.30;;;;;;;34.66;22.45;94818.41;5114635;28;20190;-57
2022/09/12 11:23:47;;;;;;;0.40;0.30;;;;;;;33.56;21.83;94817.66;5114318;28;20671;-57
2022/09/12 11:26:30;;;;;;;0.33;0.30;;;;;;;34.22;21.43;94811.72;5114758;28;20195;-57
2022/09/12 11:29:11;;;;;;;0.30;0.20;;;;;;;34.69;22.20;94812.00;5114289;28;20195;-57
2022/09/12 11:32:05;;;;;;;0.30;0.20;;;;;;;34.38;20.46;94811.69;5114596;28;20283;-57
2022/09/12 11:34:43;;;;;;;0.30;0.20;;;;;;;33.93;22.66;94808.88;5114331;28;20198;-57
2022/09/12 11:37:31;;;;;;;0.30;0.30;;;;;;;31.42;23.68;94807.59;5114107;28;20684;-57
2022/09/12 11:40:07;;;;;;;0.37;0.30;;;;;;;31.98;23.86;94814.94;5114519;28;20246;-57
2022/09/12 11:42:39;;;;;;;0.40;0.30;;;;;;;33.33;22.20;94798.53;5113876;28;20572;-57
2022/09/12 11:45:15;;;;;;;0.30;0.30;;;;;;;33.43;21.74;94773.56;5113476;28;20187;-56
2022/09/12 11:47:47;;;;;;;0.30;0.30;;;;;;;34.37;21.32;94805.41;5113047;28;20193;-57
2022/09/12 11:50:22;;;;;;;0.30;0.20;;;;;;;34.94;19.74;94799.06;5113757;28;20209;-57
2022/09/12 11:52:55;;;;;;;0.30;0.20;;;;;;;34.58;20.39;94798.56;5114039;28;20198;-57
2022/09/12 11:55:29;;;;;;;0.40;0.30;;;;;;;33.42;23.24;94794.00;5113890;28;20218;-61
2022/09/12 11:57:59;;;;;;;0.40;0.30;;;;;;;33.95;21.89;94792.75;5113076;28;20229;-57